Time;durP1;ratioP1;P1;durP2;ratioP2;P2;SDS_P1;SDS_P2;PMS_P1;PMS_P2;Temp;Humidity;BMP_temperature;BMP_pressure;BME280_temperature;BME280_humidity;BME280_pressure;Samples;Min_cycle;Max_cycle;Signal;HPM_P1;HPM_P2
2022/05/31 00:00:00;;;;;;;;;;;;;;;17.97;71.14;100729.03;4952295;29;20145;-85
2022/05/31 00:02:26;;;;;;;23.27;12.35;;;;;;;17.81;71.05;100723.97;4957814;28;19942;-84
2022/05/31 00:05:02;;;;;;;;;;;;;;;17.89;71.00;100732.78;4952139;29;20039;-85
2022/05/31 00:07:27;;;;;;;;;;;;;;;17.90;70.85;100730.91;4952671;29;19922;-86
2022/05/31 00:09:54;;;;;;;17.55;11.18;;;;;;;17.72;70.34;100705.13;4946927;29;19922;-85
2022/05/31 00:12:30;;;;;;;16.58;11.63;;;;;;;17.84;69.85;100713.53;4962412;28;20039;-86
2022/05/31 00:15:02;;;;;;;17.02;11.35;;;;;;;18.00;69.80;100739.47;4965089;28;20385;-86
2022/05/31 00:17:29;;;;;;;19.40;11.30;;;;;;;18.04;69.25;100738.00;4952710;29;20032;-85
2022/05/31 00:19:57;;;;;;;14.52;10.43;;;;;;;17.97;69.27;100720.03;4965762;28;20156;-84
2022/05/31 00:22:30;;;;;;;15.05;10.57;;;;;;;18.04;68.83;100718.97;4975142;28;20051;-85
2022/05/31 00:25:00;;;;;;;15.32;9.80;;;;;;;18.19;68.97;100731.53;4965789;28;20856;-87
2022/05/31 00:27:29;;;;;;;15.68;9.40;;;;;;;18.05;68.93;100719.81;4954183;28;20461;-86
2022/05/31 00:30:18;;;;;;;14.07;8.90;;;;;;;18.18;68.34;100725.25;4950554;28;20483;-86
2022/05/31 00:32:49;;;;;;;13.68;9.65;;;;;;;18.29;68.34;100743.69;4936881;29;20134;-85
2022/05/31 00:35:21;;;;;;;13.23;9.52;;;;;;;18.30;68.42;100745.34;4958778;29;20055;-88
2022/05/31 00:37:49;;;;;;;16.98;12.55;;;;;;;18.42;68.23;100739.28;4965771;28;20059;-86
2022/05/31 00:40:16;;;;;;;17.35;11.55;;;;;;;18.29;67.86;100711.03;4937954;29;20043;-86
2022/05/31 00:43:06;;;;;;;15.18;9.82;;;;;;;18.43;67.71;100730.06;4924947;29;20119;-86
2022/05/31 00:45:49;;;;;;;13.90;9.13;;;;;;;18.32;68.33;100726.94;4930942;28;20849;-85
2022/05/31 00:48:25;;;;;;;15.68;9.48;;;;;;;18.47;68.09;100734.03;4950624;28;20074;-86
2022/05/31 00:50:59;;;;;;;14.48;9.68;;;;;;;18.48;67.58;100741.16;4946078;28;20039;-86
2022/05/31 00:53:36;;;;;;;14.45;10.52;;;;;;;18.45;67.96;100741.56;4958902;29;20035;-86
2022/05/31 00:56:04;;;;;;;14.10;10.75;;;;;;;18.26;68.42;100732.38;4973279;28;20039;-86
2022/05/31 00:58:36;;;;;;;16.27;10.45;;;;;;;18.40;68.14;100738.63;4936660;29;20035;-85
2022/05/31 01:01:10;;;;;;;16.20;11.65;;;;;;;18.28;68.44;100738.44;4961943;28;20472;-85
2022/05/31 01:03:40;;;;;;;21.92;12.40;;;;;;;18.30;68.39;100744.50;4953840;28;20071;-85
2022/05/31 01:06:07;;;;;;;19.15;12.57;;;;;;;18.06;68.87;100729.66;4938825;29;20047;-85
2022/05/31 01:08:34;;;;;;;18.02;13.45;;;;;;;18.15;68.99;100742.00;4934773;29;20449;-86
2022/05/31 01:11:01;;;;;;;20.73;14.95;;;;;;;18.14;69.02;100754.78;4949685;29;20137;-85
2022/05/31 01:13:30;;;;;;;21.75;15.20;;;;;;;18.08;68.97;100746.63;4934754;29;20157;-86
2022/05/31 01:16:08;;;;;;;23.77;17.02;;;;;;;17.96;69.47;100726.50;4948851;29;20439;-87
2022/05/31 01:18:36;;;;;;;30.27;18.48;;;;;;;17.85;69.79;100726.06;4931099;29;20050;-87
2022/05/31 01:21:03;;;;;;;29.20;19.13;;;;;;;17.88;69.48;100724.81;4951812;28;20114;-86
2022/05/31 01:24:07;;;;;;;30.48;19.65;;;;;;;17.99;69.65;100751.41;4933718;29;20103;-86
2022/05/31 01:26:53;;;;;;;33.30;19.83;;;;;;;17.84;70.03;100754.31;4962135;28;20048;-86
2022/05/31 01:29:33;;;;;;;29.00;19.33;;;;;;;17.75;70.18;100741.94;4930507;28;20047;-86
2022/05/31 01:32:08;;;;;;;30.30;18.48;;;;;;;17.69;70.68;100751.75;4949706;29;20027;-85
2022/05/31 01:34:57;;;;;;;29.27;16.95;;;;;;;17.61;70.74;100743.78;4953801;28;20035;-85
2022/05/31 01:37:34;;;;;;;24.73;16.20;;;;;;;17.58;70.46;100741.47;4957699;28;20057;-85
2022/05/31 01:40:02;;;;;;;24.63;15.50;;;;;;;17.55;70.74;100744.59;4949332;29;20097;-86
2022/05/31 01:42:40;;;;;;;21.88;14.82;;;;;;;17.74;70.53;100762.00;4952044;28;20047;-86
2022/05/31 01:45:33;;;;;;;23.05;15.18;;;;;;;17.86;70.29;100757.69;4943204;29;20035;-86
2022/05/31 01:48:07;;;;;;;23.63;14.20;;;;;;;17.90;69.72;100758.94;4936298;29;20061;-86
2022/05/31 01:50:34;;;;;;;22.05;14.27;;;;;;;17.82;70.07;100752.88;4951327;29;20068;-85
2022/05/31 01:53:15;;;;;;;23.38;14.55;;;;;;;17.87;69.70;100745.75;4967671;28;20035;-86
2022/05/31 01:55:48;;;;;;;25.20;14.95;;;;;;;17.90;69.85;100749.94;4968669;28;20408;-86
2022/05/31 01:58:21;;;;;;;29.05;17.52;;;;;;;17.76;69.91;100737.31;4935098;29;20035;-86
2022/05/31 02:00:51;;;;;;;37.78;24.30;;;;;;;17.85;70.03;100752.44;4950269;28;20050;-85
2022/05/31 02:03:18;;;;;;;59.90;38.25;;;;;;;17.87;70.29;100767.50;4951707;28;20519;-85
2022/05/31 02:05:48;;;;;;;74.90;44.58;;;;;;;17.84;70.45;100767.94;4949687;29;20075;-86
2022/05/31 02:08:17;;;;;;;77.50;47.83;;;;;;;17.77;69.97;100758.03;4956932;29;20503;-86
2022/05/31 02:10:46;;;;;;;64.70;42.17;;;;;;;17.75;70.72;100770.97;4967850;28;20063;-86
2022/05/31 02:13:18;;;;;;;67.55;38.22;;;;;;;17.80;70.62;100776.66;4951570;28;20109;-86
2022/05/31 02:15:51;;;;;;;57.35;35.42;;;;;;;17.74;71.02;100783.75;4953711;29;20163;-86
2022/05/31 02:18:24;;;;;;;51.67;30.02;;;;;;;17.74;71.06;100789.19;4965314;28;20135;-86
2022/05/31 02:21:22;;;;;;;37.75;23.80;;;;;;;17.64;70.98;100786.88;4965341;28;20045;-86
2022/05/31 02:23:47;;;;;;;36.70;23.75;;;;;;;17.51;71.39;100784.94;4955076;28;20079;-86
2022/05/31 02:26:13;;;;;;;;;;;;;;;17.37;72.14;100782.38;4960784;28;20043;-86
2022/05/31 02:28:42;;;;;;;30.58;20.38;;;;;;;17.24;71.83;100766.84;4973883;28;19926;-86
2022/05/31 02:31:09;;;;;;;34.67;18.60;;;;;;;17.36;71.72;100778.81;4971816;28;20043;-84
2022/05/31 02:33:35;;;;;;;34.92;19.08;;;;;;;17.47;71.40;100793.72;4956154;28;20035;-86
2022/05/31 02:36:01;;;;;;;35.65;19.33;;;;;;;17.42;71.27;100769.88;4977894;28;20119;-85
2022/05/31 02:38:27;;;;;;;;;;;;;;;17.55;71.21;100789.97;4955307;28;20047;-85
2022/05/31 02:40:54;;;;;;;33.55;18.38;;;;;;;17.30;71.65;100766.03;4976327;28;19915;-86
2022/05/31 02:43:23;;;;;;;29.02;17.55;;;;;;;17.44;71.18;100785.94;4972699;28;20050;-84
2022/05/31 02:45:50;;;;;;;25.48;17.67;;;;;;;17.41;71.51;100786.38;4970702;28;20063;-84
2022/05/31 02:48:22;;;;;;;25.13;16.98;;;;;;;17.48;71.37;100795.38;4961444;28;20102;-86
2022/05/31 02:50:48;;;;;;;30.30;16.45;;;;;;;17.28;71.43;100785.28;4953178;28;20042;-86
2022/05/31 02:53:18;;;;;;;24.83;16.25;;;;;;;17.21;71.91;100778.97;4933961;29;20043;-86
2022/05/31 02:55:45;;;;;;;27.08;17.00;;;;;;;17.36;71.79;100803.28;4950925;28;20463;-86
2022/05/31 02:58:13;;;;;;;24.20;15.80;;;;;;;17.43;71.19;100800.59;4953619;28;20039;-86
2022/05/31 03:00:41;;;;;;;25.83;14.93;;;;;;;17.25;71.95;100806.56;4951539;29;20524;-86
2022/05/31 03:03:08;;;;;;;28.02;15.15;;;;;;;17.20;72.09;100790.84;4950283;28;20023;-86
2022/05/31 03:05:39;;;;;;;25.45;16.35;;;;;;;17.29;71.89;100802.41;4952941;28;20039;-86
2022/05/31 03:08:09;;;;;;;24.52;16.48;;;;;;;17.28;71.92;100801.56;4955105;28;20111;-86
2022/05/31 03:10:37;;;;;;;27.65;17.75;;;;;;;17.27;72.08;100804.47;4955181;28;20119;-85
2022/05/31 03:13:04;;;;;;;33.95;18.75;;;;;;;17.40;71.80;100799.13;4935129;28;20496;-86
2022/05/31 03:15:34;;;;;;;34.88;19.08;;;;;;;17.29;71.91;100796.97;4951813;28;20039;-86
2022/05/31 03:18:28;;;;;;;29.80;18.35;;;;;;;17.29;72.11;100808.66;4968528;28;20063;-87
2022/05/31 03:20:58;;;;;;;27.17;18.00;;;;;;;17.42;71.90;100820.63;4951623;28;20051;-87
2022/05/31 03:23:29;;;;;;;28.83;18.33;;;;;;;17.44;71.70;100816.69;4952374;28;20078;-87
2022/05/31 03:26:03;;;;;;;25.52;16.40;;;;;;;17.33;71.86;100802.84;4969012;28;20066;-86
2022/05/31 03:28:28;;;;;;;28.13;15.88;;;;;;;17.40;71.28;100806.44;4958025;28;20050;-86
2022/05/31 03:30:54;;;;;;;25.50;14.65;;;;;;;17.46;71.19;100806.44;4947233;28;20047;-86
2022/05/31 03:33:24;;;;;;;27.63;14.40;;;;;;;17.52;70.72;100802.94;4937418;28;20035;-87
2022/05/31 03:35:51;;;;;;;24.15;14.13;;;;;;;17.47;70.51;100785.56;4952160;28;20050;-87
2022/05/31 03:38:19;;;;;;;26.42;14.10;;;;;;;17.35;71.07;100800.75;4962474;28;20046;-87
2022/05/31 03:41:01;;;;;;;22.98;13.65;;;;;;;17.48;70.80;100793.50;4964788;28;20047;-85
2022/05/31 03:43:30;;;;;;;22.20;12.98;;;;;;;17.80;70.39;100821.00;4948442;28;20057;-86
2022/05/31 03:45:59;;;;;;;21.90;11.77;;;;;;;17.66;70.47;100802.97;4946788;29;20045;-86
2022/05/31 03:48:25;;;;;;;21.05;11.88;;;;;;;17.79;70.27;100807.59;4950597;29;20388;-85
2022/05/31 03:51:02;;;;;;;14.93;11.77;;;;;;;18.02;70.24;100829.88;4964244;28;20090;-85
2022/05/31 03:53:35;;;;;;;22.67;11.95;;;;;;;18.14;69.65;100832.81;4936893;29;20046;-88
2022/05/31 03:56:04;;;;;;;15.80;11.80;;;;;;;18.17;69.74;100827.00;4946816;28;20114;-87
2022/05/31 03:58:33;;;;;;;24.10;12.68;;;;;;;18.15;69.41;100812.75;4949285;29;20051;-87
2022/05/31 04:00:59;;;;;;;22.63;12.18;;;;;;;18.24;68.94;100813.38;4949114;29;20587;-86
2022/05/31 04:03:25;;;;;;;;;;;;;;;18.43;68.34;100828.91;4933704;29;20039;-87
2022/05/31 04:05:55;;;;;;;20.55;14.48;;;;;;;18.41;68.18;100817.38;4965359;28;19974;-85
2022/05/31 04:08:25;;;;;;;25.67;15.20;;;;;;;18.65;67.47;100828.69;4961539;29;20031;-87
2022/05/31 04:10:55;;;;;;;28.05;17.17;;;;;;;18.68;66.56;100810.06;4954106;28;20051;-88
2022/05/31 04:13:22;;;;;;;29.73;17.15;;;;;;;18.98;66.21;100837.69;4937457;29;20062;-94
2022/05/31 04:16:04;;;;;;;27.92;16.83;;;;;;;19.05;65.66;100824.06;4964946;28;20036;-93
2022/05/31 04:18:31;;;;;;;22.58;16.25;;;;;;;19.28;64.94;100833.66;4933085;29;21410;-89
2022/05/31 04:21:09;;;;;;;31.52;18.45;;;;;;;19.35;64.35;100829.00;4952094;28;20129;-91
2022/05/31 04:23:59;;;;;;;31.17;17.98;;;;;;;19.65;63.76;100833.94;4948267;28;20074;-93
2022/05/31 04:26:35;;;;;;;27.17;16.80;;;;;;;19.97;62.78;100843.88;4952299;29;20054;-91
2022/05/31 04:29:24;;;;;;;34.25;16.35;;;;;;;20.12;61.82;100815.44;4982139;28;20042;-94
2022/05/31 04:31:51;;;;;;;31.55;15.07;;;;;;;20.53;61.97;100803.16;4951281;29;20039;-89
2022/05/31 04:34:18;;;;;;;28.15;14.48;;;;;;;20.90;59.88;100822.41;4965917;28;20086;-87
2022/05/31 04:36:44;;;;;;;24.40;13.60;;;;;;;21.36;58.82;100823.81;4950215;28;20019;-87
2022/05/31 04:39:11;;;;;;;26.90;13.40;;;;;;;21.62;57.63;100826.25;4958530;29;20082;-88
2022/05/31 04:41:38;;;;;;;27.20;13.57;;;;;;;21.97;56.50;100831.03;4945726;29;20047;-88
2022/05/31 04:44:06;;;;;;;33.28;15.20;;;;;;;22.18;56.30;100831.59;4963295;28;20047;-89
2022/05/31 04:46:38;;;;;;;28.65;16.30;;;;;;;22.44;55.25;100842.16;4951935;28;20040;-90
2022/05/31 04:49:05;;;;;;;31.20;15.93;;;;;;;22.74;54.67;100836.59;4939053;29;20043;-89
2022/05/31 04:51:36;;;;;;;32.60;17.10;;;;;;;22.74;54.40;100808.38;4919093;29;20031;-89
2022/05/31 04:54:04;;;;;;;30.10;16.10;;;;;;;23.06;53.42;100817.09;4965242;28;20031;-90
2022/05/31 04:56:36;;;;;;;33.10;18.23;;;;;;;23.32;52.89;100826.72;4956231;28;20472;-89
2022/05/31 04:59:06;;;;;;;38.30;19.23;;;;;;;23.54;52.10;100826.88;4946886;29;20094;-89
2022/05/31 05:01:46;;;;;;;34.97;20.60;;;;;;;23.90;51.38;100829.53;4940690;29;20094;-93
2022/05/31 05:04:13;;;;;;;33.50;21.45;;;;;;;24.27;50.04;100848.34;4955076;28;20488;-92
2022/05/31 05:06:45;;;;;;;36.30;21.67;;;;;;;24.28;49.63;100830.75;4955475;29;20504;-92
2022/05/31 05:09:22;;;;;;;27.17;21.40;;;;;;;24.33;49.16;100825.38;4963379;28;20038;-92
2022/05/31 05:11:51;;;;;;;29.80;20.50;;;;;;;24.43;49.66;100839.28;4991389;28;20034;-92
2022/05/31 05:14:22;;;;;;;33.58;19.77;;;;;;;24.40;49.33;100831.56;4971989;28;20061;-89
2022/05/31 05:16:53;;;;;;;30.17;19.83;;;;;;;24.38;49.37;100819.97;4973222;28;20058;-87
2022/05/31 05:19:23;;;;;;;27.15;18.70;;;;;;;24.68;48.74;100838.06;4961354;28;20039;-88
2022/05/31 05:21:49;;;;;;;35.25;18.75;;;;;;;24.80;48.99;100839.66;4941354;29;20488;-89
2022/05/31 05:24:21;;;;;;;27.67;18.33;;;;;;;24.95;48.71;100843.72;4959549;28;20134;-90
2022/05/31 05:26:50;;;;;;;31.90;18.08;;;;;;;25.22;48.12;100854.88;4963504;28;20042;-87
2022/05/31 05:32:08;;;;;;;25.23;18.77;;;;;;;25.10;48.31;100865.94;4966531;28;20048;-90
2022/05/31 05:34:34;;;;;;;30.00;16.95;;;;;;;25.17;48.35;100868.50;4953937;28;20039;-88
2022/05/31 05:37:09;;;;;;;32.00;18.30;;;;;;;25.30;48.18;100856.34;4948970;29;20026;-90
2022/05/31 05:39:36;;;;;;;30.70;17.53;;;;;;;25.51;47.87;100860.19;4967711;29;20023;-90
2022/05/31 05:42:19;;;;;;;38.00;18.38;;;;;;;25.61;47.54;100858.41;4957662;28;20035;-89
2022/05/31 05:44:49;;;;;;;27.33;18.42;;;;;;;25.92;47.22;100866.22;4971851;28;20411;-88
2022/05/31 05:47:16;;;;;;;32.05;18.48;;;;;;;25.96;46.67;100853.59;4940368;29;20043;-88
2022/05/31 05:49:47;;;;;;;25.25;18.10;;;;;;;26.09;46.83;100853.19;4973439;28;20915;-86
2022/05/31 05:52:18;;;;;;;32.55;19.27;;;;;;;26.15;46.70;100860.41;4973069;28;20050;-88
2022/05/31 05:54:49;;;;;;;35.72;17.75;;;;;;;26.39;46.81;100857.34;4969793;28;20043;-88
2022/05/31 05:57:18;;;;;;;35.97;18.33;;;;;;;26.76;46.03;100856.56;4959732;29;20109;-92
2022/05/31 05:59:47;;;;;;;29.63;16.50;;;;;;;26.97;44.85;100865.81;4956329;28;20130;-96
2022/05/31 06:02:28;;;;;;;34.28;16.08;;;;;;;27.20;45.08;100853.59;4958292;28;20036;-92
2022/05/31 06:05:18;;;;;;;22.83;14.23;;;;;;;27.60;43.75;100863.16;4957264;28;20043;-92
2022/05/31 06:07:58;;;;;;;24.90;14.05;;;;;;;27.79;43.56;100867.97;4960302;28;20035;-88
2022/05/31 06:10:28;;;;;;;34.47;14.63;;;;;;;28.04;43.07;100862.81;4944302;28;20047;-94
2022/05/31 06:13:23;;;;;;;34.17;15.05;;;;;;;28.10;42.73;100861.72;4975475;28;20028;-93
2022/05/31 06:15:56;;;;;;;33.63;13.82;;;;;;;28.33;42.61;100863.97;4964613;28;20023;-92
2022/05/31 06:18:26;;;;;;;46.75;16.23;;;;;;;28.50;42.18;100862.91;4974179;28;20019;-92
2022/05/31 06:20:58;;;;;;;32.10;14.48;;;;;;;28.75;41.76;100865.66;4988904;28;20049;-91
2022/05/31 06:23:26;;;;;;;32.45;14.07;;;;;;;28.92;41.04;100853.47;4972821;28;20035;-88
2022/05/31 06:25:53;;;;;;;21.50;14.30;;;;;;;29.20;40.63;100866.72;4966656;28;20598;-90
2022/05/31 06:28:18;;;;;;;37.17;14.45;;;;;;;29.50;40.46;100867.75;4979310;28;20051;-92
2022/05/31 06:30:46;;;;;;;29.88;14.50;;;;;;;29.68;40.04;100858.00;4959537;28;20047;-90
2022/05/31 06:33:14;;;;;;;26.75;13.90;;;;;;;29.92;39.75;100871.19;4992245;28;20110;-87
2022/05/31 06:35:45;;;;;;;31.00;14.50;;;;;;;29.96;39.08;100859.22;4971665;29;20039;-89
2022/05/31 06:38:17;;;;;;;27.25;12.90;;;;;;;30.25;38.91;100858.47;4972302;28;20083;-90
2022/05/31 06:41:04;;;;;;;20.35;13.25;;;;;;;30.20;38.64;100839.13;4992458;28;20051;-90
2022/05/31 06:43:32;;;;;;;30.83;13.70;;;;;;;30.18;38.51;100846.91;4948212;29;20032;-87
2022/05/31 06:46:08;;;;;;;26.55;13.40;;;;;;;30.27;38.76;100856.28;4963329;29;20019;-84
2022/05/31 06:48:33;;;;;;;19.33;13.25;;;;;;;30.19;38.42;100848.56;4968031;28;20045;-84
2022/05/31 06:51:07;;;;;;;24.00;12.10;;;;;;;30.28;38.11;100844.91;4977366;28;20031;-88
2022/05/31 06:58:57;;;;;;;21.15;10.40;;;;;;;30.68;37.56;100848.47;4941736;28;20032;-86
2022/05/31 07:01:45;;;;;;;19.35;8.40;;;;;;;30.79;37.95;100852.00;4956709;28;20126;-87
2022/05/31 07:04:17;;;;;;;17.40;8.85;;;;;;;31.10;37.38;100846.97;4934653;29;20091;-86
2022/05/31 07:06:45;;;;;;;25.38;9.20;;;;;;;31.28;37.13;100848.19;4952550;28;20055;-85
2022/05/31 07:09:12;;;;;;;14.05;7.93;;;;;;;31.44;36.66;100845.22;4952718;29;20039;-84
2022/05/31 07:11:41;;;;;;;14.80;7.75;;;;;;;31.67;36.09;100844.38;4953120;28;20508;-85
2022/05/31 07:14:07;;;;;;;14.02;6.95;;;;;;;31.85;36.26;100844.72;4969031;28;20105;-85
2022/05/31 07:16:34;;;;;;;15.70;6.75;;;;;;;31.96;35.59;100840.69;4951763;28;20059;-86
2022/05/31 07:19:00;;;;;;;19.35;7.00;;;;;;;32.04;35.01;100837.22;4949136;28;20058;-85
2022/05/31 07:21:31;;;;;;;14.27;6.80;;;;;;;32.07;35.25;100850.50;4949390;28;20142;-84
2022/05/31 07:23:57;;;;;;;11.93;5.60;;;;;;;32.42;34.98;100839.94;4932601;29;20039;-84
2022/05/31 07:26:24;;;;;;;12.55;5.10;;;;;;;32.49;34.42;100843.16;4968219;28;20473;-85
2022/05/31 07:28:52;;;;;;;11.30;5.22;;;;;;;32.75;34.37;100848.31;4952824;29;20051;-85
2022/05/31 07:31:19;;;;;;;10.23;4.93;;;;;;;32.97;33.49;100853.22;4960112;29;20090;-85
2022/05/31 07:33:48;;;;;;;17.55;5.13;;;;;;;33.05;33.47;100843.38;4955391;28;20062;-85
2022/05/31 07:36:13;;;;;;;10.88;5.15;;;;;;;32.78;32.69;100822.69;4968691;28;20046;-85
2022/05/31 07:38:41;;;;;;;11.23;5.40;;;;;;;33.17;32.63;100838.09;4935067;29;20047;-85
2022/05/31 07:41:09;;;;;;;12.50;5.07;;;;;;;33.28;32.27;100853.50;4937830;29;20039;-84
2022/05/31 07:43:35;;;;;;;11.27;4.85;;;;;;;33.40;32.39;100848.22;4969159;28;20476;-85
2022/05/31 07:46:05;;;;;;;13.68;5.20;;;;;;;33.44;32.61;100842.88;4949632;29;20050;-86
2022/05/31 07:48:33;;;;;;;14.68;6.50;;;;;;;33.35;32.75;100837.19;4952240;29;20486;-84
2022/05/31 07:50:59;;;;;;;17.02;6.78;;;;;;;33.36;32.51;100822.09;4952243;28;20035;-84
2022/05/31 07:53:25;;;;;;;9.25;4.88;;;;;;;33.79;31.42;100838.50;4968545;28;20126;-84
2022/05/31 07:55:57;;;;;;;14.25;4.55;;;;;;;33.98;30.77;100821.63;4951274;29;20070;-85
2022/05/31 07:58:33;;;;;;;15.18;4.28;;;;;;;33.84;30.96;100838.38;4957973;28;20077;-85
2022/05/31 08:01:00;;;;;;;10.70;4.93;;;;;;;33.95;30.85;100826.97;4950340;28;20038;-86
2022/05/31 08:03:25;;;;;;;13.45;4.55;;;;;;;33.90;31.13;100827.94;4967654;28;20027;-84
2022/05/31 08:05:53;;;;;;;8.95;4.60;;;;;;;33.77;31.14;100835.19;4951079;29;20454;-85
2022/05/31 08:08:19;;;;;;;8.57;4.30;;;;;;;33.13;31.86;100831.50;4954201;28;20209;-88
2022/05/31 08:10:46;;;;;;;10.63;4.47;;;;;;;33.54;31.67;100828.69;4953215;29;20058;-86
2022/05/31 08:13:13;;;;;;;7.18;4.28;;;;;;;33.80;31.00;100837.34;4946930;28;20055;-87
2022/05/31 08:15:41;;;;;;;7.05;3.85;;;;;;;34.07;29.79;100835.66;4951586;28;20523;-88
2022/05/31 08:18:10;;;;;;;11.45;4.30;;;;;;;33.91;30.14;100837.13;4955257;28;20039;-87
2022/05/31 08:20:39;;;;;;;14.93;4.60;;;;;;;33.91;30.37;100837.13;4953020;29;20063;-86
2022/05/31 08:23:07;;;;;;;8.30;4.25;;;;;;;34.08;30.30;100830.88;4951240;28;20047;-86
2022/05/31 08:25:34;;;;;;;7.10;3.90;;;;;;;33.54;30.89;100833.47;4968414;28;20031;-86
2022/05/31 08:28:01;;;;;;;7.40;4.40;;;;;;;33.99;29.86;100831.63;4951051;28;20043;-87
2022/05/31 08:30:27;;;;;;;11.57;4.80;;;;;;;33.98;29.94;100829.16;4954451;29;20111;-86
2022/05/31 08:32:53;;;;;;;17.00;5.00;;;;;;;34.00;29.83;100827.72;4963465;29;20029;-86
2022/05/31 08:35:20;;;;;;;9.40;3.95;;;;;;;34.50;28.94;100829.59;4955578;29;20043;-85
2022/05/31 08:37:45;;;;;;;8.57;3.80;;;;;;;34.53;28.70;100817.78;4946931;29;20047;-86
2022/05/31 08:40:12;;;;;;;10.02;5.75;;;;;;;34.09;29.54;100816.66;4933327;29;20070;-86
2022/05/31 08:42:49;;;;;;;11.13;4.18;;;;;;;33.59;29.90;100822.22;4951176;29;20028;-83
2022/05/31 08:45:40;;;;;;;10.27;4.45;;;;;;;34.18;29.75;100817.53;4950241;29;20042;-84
2022/05/31 08:48:37;;;;;;;9.30;3.70;;;;;;;34.47;28.84;100822.69;4952786;29;20073;-85
2022/05/31 08:57:02;;;;;;;22.70;6.63;;;;;;;35.23;27.86;100823.75;4969462;28;20109;-91
2022/05/31 08:59:42;;;;;;;35.80;9.02;;;;;;;36.22;25.76;100821.34;4962575;28;20065;-83
2022/05/31 09:02:16;;;;;;;10.70;4.90;;;;;;;36.50;24.39;100813.38;4963825;29;20447;-87
2022/05/31 09:04:44;;;;;;;18.05;5.82;;;;;;;37.54;23.49;100812.19;4956286;28;20074;-87
2022/05/31 09:07:22;;;;;;;32.80;8.52;;;;;;;38.23;23.21;100810.00;4937986;28;20508;-87
2022/05/31 09:10:41;;;;;;;12.05;5.80;;;;;;;37.96;23.74;100823.41;4952372;29;20047;-84
2022/05/31 09:13:27;;;;;;;22.70;8.82;;;;;;;37.66;23.95;100819.03;4944316;29;20047;-86
2022/05/31 09:16:02;;;;;;;13.93;5.60;;;;;;;37.78;23.68;100811.50;4969157;28;20038;-90
2022/05/31 09:18:55;;;;;;;12.32;4.85;;;;;;;38.85;21.89;100819.44;4952323;28;20042;-83
2022/05/31 09:21:34;;;;;;;12.93;4.30;;;;;;;39.58;20.81;100813.03;4969961;28;20035;-85
2022/05/31 09:23:59;;;;;;;11.52;3.97;;;;;;;40.46;19.84;100813.25;4950084;28;20027;-88
2022/05/31 09:27:03;;;;;;;10.38;3.38;;;;;;;39.70;20.88;100809.38;4953352;28;20067;-86
2022/05/31 09:29:40;;;;;;;11.00;3.75;;;;;;;39.73;20.93;100807.84;4951142;29;20567;-87
2022/05/31 09:32:13;;;;;;;11.15;3.80;;;;;;;39.17;21.29;100806.50;4946631;29;20035;-85
2022/05/31 09:35:37;;;;;;;8.75;3.38;;;;;;;40.41;19.96;100805.03;4963113;29;20141;-89
2022/05/31 09:38:33;;;;;;;9.05;3.65;;;;;;;40.79;19.73;100814.94;4894929;29;20048;-87
2022/05/31 09:41:28;;;;;;;11.32;4.28;;;;;;;39.33;21.67;100814.22;4883906;29;20032;-90
2022/05/31 09:44:19;;;;;;;9.32;3.90;;;;;;;38.74;22.66;100819.06;4950976;29;20039;-88
2022/05/31 09:46:48;;;;;;;10.45;3.28;;;;;;;38.24;22.16;100817.25;4957306;29;20447;-87
2022/05/31 09:49:48;;;;;;;6.55;3.78;;;;;;;38.38;24.13;100825.38;4953574;28;20031;-85
2022/05/31 09:52:37;;;;;;;6.35;3.70;;;;;;;38.74;24.19;100815.44;4963752;28;20039;-88
2022/05/31 09:58:20;;;;;;;14.43;4.28;;;;;;;36.22;27.06;100821.34;4962703;28;20085;-85
2022/05/31 10:01:22;;;;;;;7.50;4.10;;;;;;;34.69;30.26;100812.66;4942007;29;20039;-88
2022/05/31 10:03:55;;;;;;;9.48;4.70;;;;;;;34.10;31.37;100806.31;4945441;28;20042;-90
2022/05/31 10:06:28;;;;;;;6.82;4.47;;;;;;;33.84;32.29;100812.47;4937343;29;20046;-87
2022/05/31 10:08:55;;;;;;;10.00;4.57;;;;;;;32.83;33.94;100817.00;4970315;28;20134;-84
2022/05/31 10:11:43;;;;;;;9.25;5.03;;;;;;;32.70;33.83;100817.81;4954313;28;20042;-85
2022/05/31 10:14:36;;;;;;;10.00;4.75;;;;;;;31.97;34.78;100817.31;4958761;28;20046;-84
2022/05/31 10:17:43;;;;;;;14.05;5.22;;;;;;;33.46;32.34;100821.09;4947575;29;20419;-84
2022/05/31 10:20:30;;;;;;;9.30;4.60;;;;;;;34.92;29.70;100813.41;4953508;29;20035;-84
2022/05/31 10:22:59;;;;;;;9.00;4.60;;;;;;;35.10;29.23;100808.75;4959361;29;20050;-83
2022/05/31 10:25:40;;;;;;;7.85;4.43;;;;;;;36.25;28.34;100815.06;4963510;28;20047;-85
2022/05/31 10:28:15;;;;;;;8.55;4.25;;;;;;;35.19;29.43;100817.16;4953760;29;20428;-84
2022/05/31 10:30:41;;;;;;;11.85;3.80;;;;;;;33.63;31.57;100821.28;4972538;28;20031;-84
2022/05/31 10:33:16;;;;;;;6.25;4.38;;;;;;;33.29;32.07;100810.56;4968170;28;20043;-84
2022/05/31 10:35:43;;;;;;;9.80;4.47;;;;;;;33.19;32.99;100810.78;4938404;29;20046;-85
2022/05/31 10:38:27;;;;;;;10.48;4.55;;;;;;;34.42;31.12;100794.91;4955189;28;20063;-94
2022/05/31 10:41:02;;;;;;;9.88;4.72;;;;;;;34.66;31.22;100816.91;4936405;29;20035;-82
2022/05/31 10:43:43;;;;;;;11.73;4.55;;;;;;;34.99;30.15;100799.81;4941840;29;20031;-83
2022/05/31 10:46:21;;;;;;;9.27;4.30;;;;;;;34.18;32.14;100809.16;4970083;28;20047;-85
2022/05/31 10:48:52;;;;;;;6.72;4.22;;;;;;;32.78;34.30;100811.53;4954112;29;20074;-84
2022/05/31 10:51:38;;;;;;;6.78;4.38;;;;;;;31.71;36.29;100803.75;4948320;29;20039;-84
2022/05/31 10:54:16;;;;;;;11.63;5.50;;;;;;;31.20;38.02;100806.34;4941316;29;20039;-89
2022/05/31 10:56:56;;;;;;;12.23;5.38;;;;;;;32.21;36.11;100808.03;4955235;28;20398;-81
2022/05/31 10:59:38;;;;;;;8.30;5.00;;;;;;;32.38;35.68;100797.16;4952666;29;20035;-81
2022/05/31 11:02:22;;;;;;;17.38;4.80;;;;;;;32.53;35.86;100808.09;4950910;28;20043;-82
2022/05/31 11:05:10;;;;;;;7.80;4.32;;;;;;;31.81;36.67;100805.56;4952076;29;20051;-82
2022/05/31 11:11:27;;;;;;;8.60;4.50;;;;;;;32.03;36.90;100802.22;4968506;28;20142;-82
2022/05/31 11:14:07;;;;;;;6.25;4.05;;;;;;;31.89;36.40;100802.09;4943402;29;20054;-81
2022/05/31 11:16:37;;;;;;;8.02;4.35;;;;;;;32.32;36.63;100795.63;4948094;28;20047;-81
2022/05/31 11:19:19;;;;;;;8.20;4.10;;;;;;;32.66;34.85;100792.53;4967822;28;20110;-82
2022/05/31 11:22:03;;;;;;;8.55;4.13;;;;;;;32.58;35.81;100777.38;4951806;29;20086;-82
2022/05/31 11:24:41;;;;;;;7.05;4.32;;;;;;;32.71;35.10;100789.69;4966669;28;20480;-82
2022/05/31 11:27:10;;;;;;;5.68;4.35;;;;;;;32.26;35.99;100782.91;4958965;28;20047;-82
2022/05/31 11:29:53;;;;;;;6.35;4.40;;;;;;;32.52;35.30;100786.97;4966992;28;20530;-82
2022/05/31 11:32:28;;;;;;;5.60;4.10;;;;;;;32.14;36.37;100792.56;4953246;28;20397;-82
2022/05/31 11:35:31;;;;;;;9.10;4.38;;;;;;;31.89;36.39;100784.59;4948960;29;20028;-82
2022/05/31 11:38:25;;;;;;;7.33;4.50;;;;;;;31.63;37.17;100773.88;4954568;29;20027;-81
2022/05/31 11:41:24;;;;;;;6.65;4.32;;;;;;;32.07;36.20;100775.44;4951325;29;20386;-80
2022/05/31 11:44:21;;;;;;;8.70;4.13;;;;;;;32.34;35.88;100774.72;4966929;28;20039;-82
2022/05/31 11:47:17;;;;;;;18.67;5.38;;;;;;;32.33;35.78;100778.59;4954414;28;20399;-81
2022/05/31 11:50:14;;;;;;;8.00;4.35;;;;;;;32.46;35.39;100767.84;4965152;28;20108;-81
2022/05/31 11:53:04;;;;;;;8.10;4.65;;;;;;;32.63;34.99;100775.63;4965254;28;20106;-82
2022/05/31 11:55:30;;;;;;;14.50;4.57;;;;;;;32.80;34.51;100773.06;4950565;29;20042;-81
2022/05/31 11:58:00;;;;;;;8.65;4.72;;;;;;;32.17;35.27;100764.16;4952302;28;20114;-83
2022/05/31 12:00:36;;;;;;;8.18;4.65;;;;;;;32.18;35.48;100757.47;4966936;28;20023;-83
2022/05/31 12:03:07;;;;;;;6.32;3.90;;;;;;;32.00;35.65;100741.63;4947771;29;20106;-81
2022/05/31 12:05:36;;;;;;;11.80;4.13;;;;;;;32.32;35.26;100753.91;4963219;28;20488;-81
2022/05/31 12:08:04;;;;;;;12.23;4.50;;;;;;;32.27;35.35;100763.16;4935032;29;20538;-82